sensor_id;sensor_type;location;lat;lon;timestamp;pressure;altitude;pressure_sealevel;temperature;humidity
46846;BME280;33947;46.804;134.252;2022-12-20T00:03:00;101794.00;;;-24.29;58.24
46846;BME280;33947;46.804;134.252;2022-12-20T00:06:05;101785.69;;;-23.76;56.58
46846;BME280;33947;46.804;134.252;2022-12-20T00:09:10;101791.13;;;-22.99;57.96
46846;BME280;33947;46.804;134.252;2022-12-20T00:12:15;101773.31;;;-23.21;55.45
46846;BME280;33947;46.804;134.252;2022-12-20T00:15:20;101757.78;;;-22.91;55.76
46846;BME280;33947;46.804;134.252;2022-12-20T00:18:24;101773.69;;;-22.16;54.04
46846;BME280;33947;46.804;134.252;2022-12-20T00:21:29;101766.72;;;-21.62;55.17
46846;BME280;33947;46.804;134.252;2022-12-20T00:24:35;101758.53;;;-22.23;53.40
46846;BME280;33947;46.804;134.252;2022-12-20T00:27:39;101771.06;;;-21.46;54.21
46846;BME280;33947;46.804;134.252;2022-12-20T00:30:43;101753.59;;;-21.52;53.45
46846;BME280;33947;46.804;134.252;2022-12-20T00:33:50;101752.78;;;-20.87;54.26
46846;BME280;33947;46.804;134.252;2022-12-20T00:36:55;101769.88;;;-20.63;51.59
46846;BME280;33947;46.804;134.252;2022-12-20T00:39:59;101772.66;;;-20.02;53.61
46846;BME280;33947;46.804;134.252;2022-12-20T00:43:05;101759.56;;;-18.13;51.40
46846;BME280;33947;46.804;134.252;2022-12-20T00:46:14;101759.44;;;-17.90;48.85
46846;BME280;33947;46.804;134.252;2022-12-20T00:49:19;101748.94;;;-17.20;48.01
46846;BME280;33947;46.804;134.252;2022-12-20T00:52:23;101725.56;;;-17.74;46.05
46846;BME280;33947;46.804;134.252;2022-12-20T00:55:28;101754.41;;;-17.24;48.79
46846;BME280;33947;46.804;134.252;2022-12-20T00:58:36;101751.47;;;-16.86;46.35
46846;BME280;33947;46.804;134.252;2022-12-20T01:01:41;101756.78;;;-17.09;47.48
46846;BME280;33947;46.804;134.252;2022-12-20T01:04:47;101762.06;;;-16.99;48.08
46846;BME280;33947;46.804;134.252;2022-12-20T01:07:53;101737.50;;;-16.65;45.91
46846;BME280;33947;46.804;134.252;2022-12-20T01:11:21;101751.16;;;-17.23;47.81
46846;BME280;33947;46.804;134.252;2022-12-20T01:14:26;101744.84;;;-16.93;48.49
46846;BME280;33947;46.804;134.252;2022-12-20T01:17:31;101727.94;;;-17.35;47.61
46846;BME280;33947;46.804;134.252;2022-12-20T01:20:35;101741.31;;;-17.20;48.51
46846;BME280;33947;46.804;134.252;2022-12-20T01:23:40;101737.97;;;-16.94;48.64
46846;BME280;33947;46.804;134.252;2022-12-20T01:26:46;101725.03;;;-16.37;48.29
46846;BME280;33947;46.804;134.252;2022-12-20T01:29:50;101723.00;;;-15.71;48.92
46846;BME280;33947;46.804;134.252;2022-12-20T01:32:55;101702.25;;;-15.21;45.87
46846;BME280;33947;46.804;134.252;2022-12-20T01:36:02;101670.56;;;-14.49;43.59
46846;BME280;33947;46.804;134.252;2022-12-20T01:39:13;101668.59;;;-13.86;44.58
46846;BME280;33947;46.804;134.252;2022-12-20T01:42:18;101703.63;;;-12.96;42.64
46846;BME280;33947;46.804;134.252;2022-12-20T01:45:28;101686.41;;;-13.18;41.62
46846;BME280;33947;46.804;134.252;2022-12-20T01:48:34;101702.88;;;-12.85;41.50
46846;BME280;33947;46.804;134.252;2022-12-20T01:51:46;101691.28;;;-13.50;41.48
46846;BME280;33947;46.804;134.252;2022-12-20T01:55:06;101692.34;;;-14.53;42.27
46846;BME280;33947;46.804;134.252;2022-12-20T01:58:12;101685.44;;;-13.88;44.95
46846;BME280;33947;46.804;134.252;2022-12-20T02:01:17;101684.53;;;-13.40;43.31
46846;BME280;33947;46.804;134.252;2022-12-20T02:04:23;101683.84;;;-13.18;42.07
46846;BME280;33947;46.804;134.252;2022-12-20T02:07:30;101668.50;;;-13.18;42.14
46846;BME280;33947;46.804;134.252;2022-12-20T02:11:00;101682.59;;;-13.13;41.65
46846;BME280;33947;46.804;134.252;2022-12-20T02:32:25;101689.31;;;-14.02;42.62
46846;BME280;33947;46.804;134.252;2022-12-20T02:35:34;101682.94;;;-13.77;42.22
46846;BME280;33947;46.804;134.252;2022-12-20T02:38:40;101676.13;;;-13.87;41.04
46846;BME280;33947;46.804;134.252;2022-12-20T02:41:50;101666.53;;;-14.09;41.48
46846;BME280;33947;46.804;134.252;2022-12-20T02:45:02;101660.97;;;-14.52;40.51
46846;BME280;33947;46.804;134.252;2022-12-20T02:48:26;101662.28;;;-14.28;42.42
46846;BME280;33947;46.804;134.252;2022-12-20T02:51:35;101647.69;;;-14.20;41.87
46846;BME280;33947;46.804;134.252;2022-12-20T02:54:39;101651.88;;;-14.20;41.90
46846;BME280;33947;46.804;134.252;2022-12-20T02:58:02;101650.63;;;-14.73;41.48
46846;BME280;33947;46.804;134.252;2022-12-20T03:01:13;101642.88;;;-15.20;40.84
46846;BME280;33947;46.804;134.252;2022-12-20T03:04:24;101641.22;;;-14.82;42.85
46846;BME280;33947;46.804;134.252;2022-12-20T03:07:34;101636.31;;;-14.90;42.35
46846;BME280;33947;46.804;134.252;2022-12-20T03:10:38;101587.53;;;-15.12;42.30
46846;BME280;33947;46.804;134.252;2022-12-20T03:13:43;101598.69;;;-15.01;42.00
46846;BME280;33947;46.804;134.252;2022-12-20T03:16:47;101631.34;;;-14.69;41.55
46846;BME280;33947;46.804;134.252;2022-12-20T03:19:52;101638.94;;;-14.60;41.47
46846;BME280;33947;46.804;134.252;2022-12-20T03:22:57;101618.88;;;-14.47;41.07
46846;BME280;33947;46.804;134.252;2022-12-20T03:26:02;101624.69;;;-14.77;40.65
46846;BME280;33947;46.804;134.252;2022-12-20T03:29:16;101611.88;;;-14.96;40.75
46846;BME280;33947;46.804;134.252;2022-12-20T03:32:21;101622.78;;;-14.89;40.48
46846;BME280;33947;46.804;134.252;2022-12-20T03:35:26;101615.19;;;-14.98;40.94
46846;BME280;33947;46.804;134.252;2022-12-20T03:38:30;101602.91;;;-15.02;40.60
46846;BME280;33947;46.804;134.252;2022-12-20T03:41:35;101620.69;;;-15.21;41.24
46846;BME280;33947;46.804;134.252;2022-12-20T03:44:41;101591.78;;;-15.02;40.66
46846;BME280;33947;46.804;134.252;2022-12-20T03:47:46;101601.91;;;-15.49;40.30
46846;BME280;33947;46.804;134.252;2022-12-20T03:50:51;101583.72;;;-15.44;41.08
46846;BME280;33947;46.804;134.252;2022-12-20T03:53:55;101586.28;;;-15.44;40.97
46846;BME280;33947;46.804;134.252;2022-12-20T03:57:15;101602.97;;;-14.63;41.41
46846;BME280;33947;46.804;134.252;2022-12-20T04:00:21;101597.09;;;-15.09;40.80
46846;BME280;33947;46.804;134.252;2022-12-20T04:03:33;101585.78;;;-14.94;41.47
46846;BME280;33947;46.804;134.252;2022-12-20T04:06:39;101570.69;;;-15.47;40.87
46846;BME280;33947;46.804;134.252;2022-12-20T04:09:43;101611.81;;;-15.52;41.31
46846;BME280;33947;46.804;134.252;2022-12-20T04:12:51;101606.72;;;-15.61;42.89
46846;BME280;33947;46.804;134.252;2022-12-20T04:15:56;101604.16;;;-15.16;41.20
46846;BME280;33947;46.804;134.252;2022-12-20T04:19:07;101606.81;;;-15.05;40.87
46846;BME280;33947;46.804;134.252;2022-12-20T04:22:15;101588.31;;;-14.94;42.42
46846;BME280;33947;46.804;134.252;2022-12-20T04:25:26;101607.78;;;-15.22;40.59
46846;BME280;33947;46.804;134.252;2022-12-20T04:28:30;101605.72;;;-15.35;42.31
46846;BME280;33947;46.804;134.252;2022-12-20T04:31:35;101574.19;;;-15.18;42.86
46846;BME280;33947;46.804;134.252;2022-12-20T04:34:40;101598.69;;;-15.01;39.97
46846;BME280;33947;46.804;134.252;2022-12-20T04:37:45;101596.72;;;-15.32;41.33
46846;BME280;33947;46.804;134.252;2022-12-20T04:40:50;101599.28;;;-14.95;41.74
46846;BME280;33947;46.804;134.252;2022-12-20T04:43:57;101603.94;;;-15.36;40.22
46846;BME280;33947;46.804;134.252;2022-12-20T04:47:11;101552.66;;;-15.31;40.98
46846;BME280;33947;46.804;134.252;2022-12-20T04:50:15;101603.03;;;-15.37;40.19
46846;BME280;33947;46.804;134.252;2022-12-20T04:53:22;101596.75;;;-15.40;41.13
46846;BME280;33947;46.804;134.252;2022-12-20T04:56:46;101601.16;;;-15.20;41.27
46846;BME280;33947;46.804;134.252;2022-12-20T04:59:55;101589.03;;;-15.14;41.89
46846;BME280;33947;46.804;134.252;2022-12-20T05:03:00;101587.69;;;-15.74;40.16
46846;BME280;33947;46.804;134.252;2022-12-20T05:06:05;101580.00;;;-15.47;41.52
46846;BME280;33947;46.804;134.252;2022-12-20T05:09:11;101586.00;;;-16.01;39.87
46846;BME280;33947;46.804;134.252;2022-12-20T05:12:16;101537.34;;;-16.04;40.24
46846;BME280;33947;46.804;134.252;2022-12-20T05:15:20;101584.75;;;-15.78;40.84
46846;BME280;33947;46.804;134.252;2022-12-20T05:18:27;101602.56;;;-15.69;40.47
46846;BME280;33947;46.804;134.252;2022-12-20T05:21:35;101580.22;;;-15.81;41.23
46846;BME280;33947;46.804;134.252;2022-12-20T05:24:58;101607.03;;;-15.21;41.45
46846;BME280;33947;46.804;134.252;2022-12-20T05:28:23;101618.06;;;-15.40;39.52
46846;BME280;33947;46.804;134.252;2022-12-20T05:31:28;101625.91;;;-15.74;40.66
46846;BME280;33947;46.804;134.252;2022-12-20T05:34:33;101626.41;;;-16.13;39.49
46846;BME280;33947;46.804;134.252;2022-12-20T05:37:38;101634.97;;;-16.12;41.08
46846;BME280;33947;46.804;134.252;2022-12-20T05:40:50;101620.50;;;-15.68;41.23
46846;BME280;33947;46.804;134.252;2022-12-20T05:43:55;101634.09;;;-15.41;40.16
46846;BME280;33947;46.804;134.252;2022-12-20T05:47:00;101627.91;;;-15.34;41.70
46846;BME280;33947;46.804;134.252;2022-12-20T05:50:07;101631.72;;;-15.57;40.53
46846;BME280;33947;46.804;134.252;2022-12-20T05:53:40;101646.28;;;-15.74;40.83
46846;BME280;33947;46.804;134.252;2022-12-20T05:56:45;101646.88;;;-15.85;39.88
46846;BME280;33947;46.804;134.252;2022-12-20T05:59:54;101654.13;;;-15.98;40.06
46846;BME280;33947;46.804;134.252;2022-12-20T06:03:00;101643.16;;;-16.41;39.63
46846;BME280;33947;46.804;134.252;2022-12-20T06:06:07;101657.09;;;-16.20;39.99
46846;BME280;33947;46.804;134.252;2022-12-20T06:09:16;101651.97;;;-15.67;41.13
46846;BME280;33947;46.804;134.252;2022-12-20T06:12:37;101646.91;;;-15.94;39.38
46846;BME280;33947;46.804;134.252;2022-12-20T06:15:42;101652.91;;;-16.11;39.57
46846;BME280;33947;46.804;134.252;2022-12-20T06:18:46;101650.19;;;-15.86;40.12
46846;BME280;33947;46.804;134.252;2022-12-20T06:21:52;101629.56;;;-15.89;39.96
46846;BME280;33947;46.804;134.252;2022-12-20T06:25:06;101637.94;;;-15.90;40.09
46846;BME280;33947;46.804;134.252;2022-12-20T06:28:14;101634.81;;;-16.32;39.92
46846;BME280;33947;46.804;134.252;2022-12-20T06:31:25;101639.00;;;-16.23;40.22
46846;BME280;33947;46.804;134.252;2022-12-20T06:34:33;101638.09;;;-16.15;40.74
46846;BME280;33947;46.804;134.252;2022-12-20T06:37:37;101654.56;;;-16.20;41.11
46846;BME280;33947;46.804;134.252;2022-12-20T06:40:43;101632.69;;;-16.18;41.24
46846;BME280;33947;46.804;134.252;2022-12-20T06:43:47;101636.91;;;-16.19;42.00
46846;BME280;33947;46.804;134.252;2022-12-20T06:46:52;101640.63;;;-16.33;40.18
46846;BME280;33947;46.804;134.252;2022-12-20T06:49:58;101635.25;;;-16.36;41.00
46846;BME280;33947;46.804;134.252;2022-12-20T06:53:05;101631.47;;;-16.48;40.63
46846;BME280;33947;46.804;134.252;2022-12-20T06:56:10;101629.34;;;-16.70;40.13
46846;BME280;33947;46.804;134.252;2022-12-20T06:59:15;101619.47;;;-16.84;40.68
46846;BME280;33947;46.804;134.252;2022-12-20T07:02:20;101623.16;;;-16.90;40.60
46846;BME280;33947;46.804;134.252;2022-12-20T07:05:29;101609.56;;;-16.99;41.26
46846;BME280;33947;46.804;134.252;2022-12-20T07:08:34;101617.28;;;-17.15;40.70
46846;BME280;33947;46.804;134.252;2022-12-20T07:11:38;101588.53;;;-17.32;40.96
46846;BME280;33947;46.804;134.252;2022-12-20T07:14:43;101593.09;;;-17.45;41.32
46846;BME280;33947;46.804;134.252;2022-12-20T07:17:48;101623.19;;;-17.32;41.43
46846;BME280;33947;46.804;134.252;2022-12-20T07:20:52;101592.97;;;-17.71;42.93
46846;BME280;33947;46.804;134.252;2022-12-20T07:23:56;101630.38;;;-17.62;42.84
46846;BME280;33947;46.804;134.252;2022-12-20T07:27:01;101629.25;;;-17.72;44.00
46846;BME280;33947;46.804;134.252;2022-12-20T07:30:06;101633.38;;;-18.07;44.62
46846;BME280;33947;46.804;134.252;2022-12-20T07:33:11;101620.47;;;-18.17;45.15
46846;BME280;33947;46.804;134.252;2022-12-20T07:36:16;101615.72;;;-18.14;45.29
46846;BME280;33947;46.804;134.252;2022-12-20T07:39:20;101580.13;;;-18.23;44.63
46846;BME280;33947;46.804;134.252;2022-12-20T07:42:25;101624.28;;;-17.80;44.22
46846;BME280;33947;46.804;134.252;2022-12-20T07:45:38;101625.03;;;-17.81;44.18
46846;BME280;33947;46.804;134.252;2022-12-20T07:48:43;101624.06;;;-18.15;43.64
46846;BME280;33947;46.804;134.252;2022-12-20T07:51:49;101626.19;;;-18.43;44.09
46846;BME280;33947;46.804;134.252;2022-12-20T07:54:59;101614.25;;;-18.44;45.15
46846;BME280;33947;46.804;134.252;2022-12-20T07:58:07;101607.06;;;-18.80;44.66
46846;BME280;33947;46.804;134.252;2022-12-20T08:01:12;101604.16;;;-19.31;45.17
46846;BME280;33947;46.804;134.252;2022-12-20T08:04:20;101584.47;;;-19.34;45.67
46846;BME280;33947;46.804;134.252;2022-12-20T08:07:28;101612.59;;;-19.47;46.73
46846;BME280;33947;46.804;134.252;2022-12-20T08:10:34;101593.31;;;-19.30;46.70
46846;BME280;33947;46.804;134.252;2022-12-20T08:13:40;101592.84;;;-19.42;46.11
46846;BME280;33947;46.804;134.252;2022-12-20T08:16:49;101605.06;;;-19.31;46.56
46846;BME280;33947;46.804;134.252;2022-12-20T08:19:54;101601.94;;;-19.52;46.48
46846;BME280;33947;46.804;134.252;2022-12-20T08:23:02;101595.66;;;-19.55;46.54
46846;BME280;33947;46.804;134.252;2022-12-20T08:26:07;101590.59;;;-19.32;46.08
46846;BME280;33947;46.804;134.252;2022-12-20T08:29:12;101591.66;;;-19.30;45.88
46846;BME280;33947;46.804;134.252;2022-12-20T08:32:16;101598.59;;;-19.83;46.31
46846;BME280;33947;46.804;134.252;2022-12-20T08:35:22;101591.78;;;-19.91;47.46
46846;BME280;33947;46.804;134.252;2022-12-20T08:38:27;101586.34;;;-20.17;47.26
46846;BME280;33947;46.804;134.252;2022-12-20T08:41:36;101587.72;;;-20.43;47.76
46846;BME280;33947;46.804;134.252;2022-12-20T08:44:40;101592.63;;;-20.44;47.13
46846;BME280;33947;46.804;134.252;2022-12-20T08:47:45;101589.75;;;-20.55;48.37
46846;BME280;33947;46.804;134.252;2022-12-20T08:50:54;101583.00;;;-20.77;48.25
46846;BME280;33947;46.804;134.252;2022-12-20T08:53:58;101589.44;;;-20.65;48.37
46846;BME280;33947;46.804;134.252;2022-12-20T08:57:03;101584.16;;;-20.97;48.22
46846;BME280;33947;46.804;134.252;2022-12-20T09:00:08;101592.31;;;-21.14;49.09
46846;BME280;33947;46.804;134.252;2022-12-20T09:03:13;101561.34;;;-21.35;49.66
46846;BME280;33947;46.804;134.252;2022-12-20T09:06:18;101589.63;;;-21.30;50.58
46846;BME280;33947;46.804;134.252;2022-12-20T09:09:23;101586.16;;;-21.09;50.00
46846;BME280;33947;46.804;134.252;2022-12-20T09:12:28;101582.22;;;-21.21;50.02
46846;BME280;33947;46.804;134.252;2022-12-20T09:15:34;101590.53;;;-21.37;49.91
46846;BME280;33947;46.804;134.252;2022-12-20T09:18:39;101589.97;;;-21.34;49.83
46846;BME280;33947;46.804;134.252;2022-12-20T09:21:44;101584.97;;;-21.78;49.69
46846;BME280;33947;46.804;134.252;2022-12-20T09:24:50;101576.31;;;-21.65;49.62
46846;BME280;33947;46.804;134.252;2022-12-20T09:27:54;101564.94;;;-21.47;48.79
46846;BME280;33947;46.804;134.252;2022-12-20T09:31:04;101594.91;;;-21.72;49.80
46846;BME280;33947;46.804;134.252;2022-12-20T09:34:09;101586.84;;;-22.33;51.35
46846;BME280;33947;46.804;134.252;2022-12-20T09:37:14;101570.63;;;-22.35;52.12
46846;BME280;33947;46.804;134.252;2022-12-20T09:40:21;101583.09;;;-22.22;50.71
46846;BME280;33947;46.804;134.252;2022-12-20T09:43:28;101583.25;;;-22.21;52.01
46846;BME280;33947;46.804;134.252;2022-12-20T09:46:32;101568.13;;;-22.50;51.38
46846;BME280;33947;46.804;134.252;2022-12-20T09:49:41;101586.63;;;-22.35;51.79
46846;BME280;33947;46.804;134.252;2022-12-20T09:53:20;101580.50;;;-22.59;52.61
46846;BME280;33947;46.804;134.252;2022-12-20T09:56:26;101576.25;;;-22.31;52.20
46846;BME280;33947;46.804;134.252;2022-12-20T09:59:34;101564.88;;;-22.42;51.76
46846;BME280;33947;46.804;134.252;2022-12-20T10:02:47;101579.28;;;-22.40;51.17
46846;BME280;33947;46.804;134.252;2022-12-20T10:26:34;101578.56;;;-22.89;53.50
46846;BME280;33947;46.804;134.252;2022-12-20T10:29:39;101578.50;;;-23.03;52.98
46846;BME280;33947;46.804;134.252;2022-12-20T10:32:45;101580.72;;;-22.84;53.43
46846;BME280;33947;46.804;134.252;2022-12-20T10:35:50;101557.25;;;-22.63;52.56
46846;BME280;33947;46.804;134.252;2022-12-20T10:38:57;101569.16;;;-22.55;52.71
46846;BME280;33947;46.804;134.252;2022-12-20T10:42:02;101569.03;;;-22.91;52.88
46846;BME280;33947;46.804;134.252;2022-12-20T10:48:40;101567.72;;;-23.02;53.71
46846;BME280;33947;46.804;134.252;2022-12-20T10:51:55;101549.16;;;-23.10;52.54
46846;BME280;33947;46.804;134.252;2022-12-20T10:55:00;101565.22;;;-22.95;53.80
46846;BME280;33947;46.804;134.252;2022-12-20T11:01:35;101563.63;;;-23.77;55.29
46846;BME280;33947;46.804;134.252;2022-12-20T11:04:40;101549.25;;;-23.57;55.41
46846;BME280;33947;46.804;134.252;2022-12-20T11:07:55;101542.63;;;-23.50;54.77
46846;BME280;33947;46.804;134.252;2022-12-20T11:11:23;101552.13;;;-23.54;54.80
46846;BME280;33947;46.804;134.252;2022-12-20T11:14:30;101555.88;;;-23.58;54.24
46846;BME280;33947;46.804;134.252;2022-12-20T11:17:45;101562.19;;;-23.54;54.84
46846;BME280;33947;46.804;134.252;2022-12-20T11:24:32;101549.06;;;-23.99;55.19
46846;BME280;33947;46.804;134.252;2022-12-20T11:31:19;101557.19;;;-24.02;55.77
46846;BME280;33947;46.804;134.252;2022-12-20T11:38:26;101561.63;;;-23.99;57.11
46846;BME280;33947;46.804;134.252;2022-12-20T11:52:35;101571.00;;;-24.52;59.28
46846;BME280;33947;46.804;134.252;2022-12-20T11:55:46;101568.28;;;-24.40;58.13
46846;BME280;33947;46.804;134.252;2022-12-20T12:02:43;101575.91;;;-24.13;56.13
46846;BME280;33947;46.804;134.252;2022-12-20T12:05:51;101569.22;;;-23.92;55.12
46846;BME280;33947;46.804;134.252;2022-12-20T12:12:14;101509.81;;;-23.99;53.73
46846;BME280;33947;46.804;134.252;2022-12-20T12:18:43;101494.53;;;-24.61;54.96
46846;BME280;33947;46.804;134.252;2022-12-20T12:22:01;101560.22;;;-23.77;53.84
46846;BME280;33947;46.804;134.252;2022-12-20T12:25:14;101546.72;;;-24.05;52.71
46846;BME280;33947;46.804;134.252;2022-12-20T12:28:21;101555.78;;;-23.93;52.76
46846;BME280;33947;46.804;134.252;2022-12-20T12:35:02;101561.06;;;-24.24;54.68
46846;BME280;33947;46.804;134.252;2022-12-20T12:45:15;101568.47;;;-24.52;55.81
46846;BME280;33947;46.804;134.252;2022-12-20T12:51:40;101556.97;;;-25.03;58.08
46846;BME280;33947;46.804;134.252;2022-12-20T12:54:46;101562.09;;;-24.96;58.46
46846;BME280;33947;46.804;134.252;2022-12-20T12:57:55;101561.34;;;-24.82;57.54
46846;BME280;33947;46.804;134.252;2022-12-20T13:01:02;101570.38;;;-24.43;56.44
46846;BME280;33947;46.804;134.252;2022-12-20T13:04:21;101549.69;;;-25.53;58.17
46846;BME280;33947;46.804;134.252;2022-12-20T13:13:40;101568.47;;;-24.85;57.55
46846;BME280;33947;46.804;134.252;2022-12-20T13:16:44;101570.66;;;-24.14;54.66
46846;BME280;33947;46.804;134.252;2022-12-20T13:20:17;101427.00;;;-24.80;53.07
46846;BME280;33947;46.804;134.252;2022-12-20T13:23:22;101568.56;;;-24.44;53.56
46846;BME280;33947;46.804;134.252;2022-12-20T13:26:52;101559.06;;;-25.19;56.44
46846;BME280;33947;46.804;134.252;2022-12-20T13:33:22;101569.31;;;-24.79;54.68
46846;BME280;33947;46.804;134.252;2022-12-20T13:36:34;101570.72;;;-25.32;56.15
46846;BME280;33947;46.804;134.252;2022-12-20T13:39:38;101514.88;;;-25.57;57.13
46846;BME280;33947;46.804;134.252;2022-12-20T13:42:43;101549.34;;;-24.64;56.51
46846;BME280;33947;46.804;134.252;2022-12-20T13:46:18;101556.44;;;-24.74;55.42
46846;BME280;33947;46.804;134.252;2022-12-20T13:49:40;101576.72;;;-25.38;56.04
46846;BME280;33947;46.804;134.252;2022-12-20T13:52:46;101574.63;;;-25.22;56.39
46846;BME280;33947;46.804;134.252;2022-12-20T13:55:52;101573.88;;;-24.82;55.78
46846;BME280;33947;46.804;134.252;2022-12-20T13:59:29;101568.28;;;-24.73;54.88
46846;BME280;33947;46.804;134.252;2022-12-20T14:02:39;101566.41;;;-25.08;55.31
46846;BME280;33947;46.804;134.252;2022-12-20T14:05:45;101547.53;;;-25.24;56.75
46846;BME280;33947;46.804;134.252;2022-12-20T14:08:51;101571.59;;;-25.19;56.19
46846;BME280;33947;46.804;134.252;2022-12-20T14:12:12;101574.63;;;-25.22;56.69
46846;BME280;33947;46.804;134.252;2022-12-20T14:15:31;101565.59;;;-25.40;57.04
46846;BME280;33947;46.804;134.252;2022-12-20T14:18:36;101551.69;;;-25.12;57.40
46846;BME280;33947;46.804;134.252;2022-12-20T14:21:45;101550.97;;;-25.24;56.54
46846;BME280;33947;46.804;134.252;2022-12-20T14:24:50;101545.81;;;-25.05;57.03
46846;BME280;33947;46.804;134.252;2022-12-20T14:27:54;101529.97;;;-24.98;55.79
46846;BME280;33947;46.804;134.252;2022-12-20T14:31:19;101548.25;;;-25.38;56.07
46846;BME280;33947;46.804;134.252;2022-12-20T14:34:27;101541.34;;;-25.59;57.70
46846;BME280;33947;46.804;134.252;2022-12-20T14:37:38;101529.72;;;-25.72;58.26
46846;BME280;33947;46.804;134.252;2022-12-20T14:40:44;101534.50;;;-25.35;57.73
46846;BME280;33947;46.804;134.252;2022-12-20T14:44:01;101527.59;;;-25.30;57.05
46846;BME280;33947;46.804;134.252;2022-12-20T14:47:25;101533.91;;;-25.39;57.32
46846;BME280;33947;46.804;134.252;2022-12-20T14:50:34;101527.69;;;-25.36;56.84
46846;BME280;33947;46.804;134.252;2022-12-20T14:53:44;101510.47;;;-25.66;57.67
46846;BME280;33947;46.804;134.252;2022-12-20T14:56:49;101514.31;;;-25.49;57.43
46846;BME280;33947;46.804;134.252;2022-12-20T15:03:21;101487.31;;;-25.96;58.18
46846;BME280;33947;46.804;134.252;2022-12-20T15:06:38;101507.97;;;-25.91;58.10
46846;BME280;33947;46.804;134.252;2022-12-20T15:09:44;101508.25;;;-25.83;58.36
46846;BME280;33947;46.804;134.252;2022-12-20T15:12:48;101496.53;;;-25.89;58.26
46846;BME280;33947;46.804;134.252;2022-12-20T15:15:54;101489.09;;;-25.95;57.79
46846;BME280;33947;46.804;134.252;2022-12-20T15:19:01;101474.19;;;-26.45;59.12
46846;BME280;33947;46.804;134.252;2022-12-20T15:22:13;101491.09;;;-26.18;58.59
46846;BME280;33947;46.804;134.252;2022-12-20T15:25:18;101483.13;;;-25.77;58.35
46846;BME280;33947;46.804;134.252;2022-12-20T15:28:25;101478.13;;;-25.64;57.61
46846;BME280;33947;46.804;134.252;2022-12-20T15:31:32;101470.00;;;-25.69;57.22
46846;BME280;33947;46.804;134.252;2022-12-20T15:34:38;101469.38;;;-25.99;56.63
46846;BME280;33947;46.804;134.252;2022-12-20T15:37:43;101472.38;;;-26.15;57.55
46846;BME280;33947;46.804;134.252;2022-12-20T15:40:48;101480.97;;;-26.13;57.45
46846;BME280;33947;46.804;134.252;2022-12-20T15:47:42;101472.84;;;-26.81;59.65
46846;BME280;33947;46.804;134.252;2022-12-20T15:50:50;101477.06;;;-27.05;60.15
46846;BME280;33947;46.804;134.252;2022-12-20T15:53:57;101472.28;;;-26.85;60.46
46846;BME280;33947;46.804;134.252;2022-12-20T15:57:04;101424.56;;;-26.74;59.47
46846;BME280;33947;46.804;134.252;2022-12-20T16:00:12;101469.00;;;-26.47;59.18
46846;BME280;33947;46.804;134.252;2022-12-20T16:03:21;101471.81;;;-26.38;58.49
46846;BME280;33947;46.804;134.252;2022-12-20T16:06:26;101463.72;;;-26.43;57.82
46846;BME280;33947;46.804;134.252;2022-12-20T16:09:31;101479.34;;;-26.25;57.67
46846;BME280;33947;46.804;134.252;2022-12-20T16:12:35;101465.16;;;-26.32;57.32
46846;BME280;33947;46.804;134.252;2022-12-20T16:15:40;101473.47;;;-26.26;57.46
46846;BME280;33947;46.804;134.252;2022-12-20T16:18:45;101471.97;;;-26.31;57.21
46846;BME280;33947;46.804;134.252;2022-12-20T16:21:50;101474.72;;;-26.35;57.58
46846;BME280;33947;46.804;134.252;2022-12-20T16:24:55;101412.94;;;-26.55;57.17
46846;BME280;33947;46.804;134.252;2022-12-20T16:27:59;101471.38;;;-25.97;57.02
46846;BME280;33947;46.804;134.252;2022-12-20T16:34:28;101463.59;;;-25.92;56.92
46846;BME280;33947;46.804;134.252;2022-12-20T16:37:33;101460.25;;;-25.99;56.41
46846;BME280;33947;46.804;134.252;2022-12-20T16:40:41;101441.91;;;-26.05;56.00
46846;BME280;33947;46.804;134.252;2022-12-20T16:43:46;101460.38;;;-26.17;55.57
46846;BME280;33947;46.804;134.252;2022-12-20T16:46:52;101469.00;;;-26.66;56.99
46846;BME280;33947;46.804;134.252;2022-12-20T16:49:56;101464.94;;;-26.65;57.49
46846;BME280;33947;46.804;134.252;2022-12-20T16:53:00;101458.81;;;-26.67;57.99
46846;BME280;33947;46.804;134.252;2022-12-20T16:56:05;101451.16;;;-26.56;58.00
46846;BME280;33947;46.804;134.252;2022-12-20T16:59:11;101453.28;;;-26.33;57.03
46846;BME280;33947;46.804;134.252;2022-12-20T17:02:27;101460.00;;;-26.71;57.42
46846;BME280;33947;46.804;134.252;2022-12-20T17:05:34;101463.72;;;-26.43;57.40
46846;BME280;33947;46.804;134.252;2022-12-20T17:08:39;101474.09;;;-26.84;57.91
46846;BME280;33947;46.804;134.252;2022-12-20T17:11:57;101473.59;;;-26.69;57.55
46846;BME280;33947;46.804;134.252;2022-12-20T17:15:02;101455.06;;;-27.27;58.11
46846;BME280;33947;46.804;134.252;2022-12-20T17:18:07;101471.56;;;-27.21;58.19
46846;BME280;33947;46.804;134.252;2022-12-20T17:21:20;101464.47;;;-27.37;58.43
46846;BME280;33947;46.804;134.252;2022-12-20T17:24:25;101466.91;;;-27.31;58.85
46846;BME280;33947;46.804;134.252;2022-12-20T17:27:30;101468.44;;;-27.26;59.49
46846;BME280;33947;46.804;134.252;2022-12-20T17:30:34;101467.69;;;-27.01;59.09
46846;BME280;33947;46.804;134.252;2022-12-20T17:33:38;101462.66;;;-26.82;58.36
46846;BME280;33947;46.804;134.252;2022-12-20T17:36:43;101465.16;;;-26.82;57.95
46846;BME280;33947;46.804;134.252;2022-12-20T17:39:47;101456.09;;;-27.00;58.08